Welcome to Northern Hawkes Bay. New Zealand.
PWS Header
      nz Flag



Hit Counter


W3C Valid W3C Valid logo


    Wairoa

Select any of the Stations below to visit their websites.










Historic Data from Weather Underground
Select the location of interest below. Wairoa is the default. Please have patience, this Data is slow to load in.
Northern Hawkes Bay Historical Data
Daily Summary for January 30, 2017 Units:  Metric    English   Both
« Previous Day
Next Day »
Daily Weekly Monthly Yearly Custom
  High: Low: Average:
Temperature: 24.2 °C 12.3 °C 19.4 °C
Dew Point: 16.2 °C 10.1 °C 13 °C
Humidity: 87% 46% 68%
Wind Speed: 17.2km/h 0.0km/h 4.8km/h
Wind Gust: 24.5km/h - -
Wind- - SW
Pressure: 1021.2 hPa 1016.1 hPa -
Precipitation: 0.0 mm    
Historical Graphs
 
 
Tabular Data for January 30, 2017
Time Temperature Dew Point Pressure Wind Wind Speed Wind Gust Humidity Rainfall Rate (Hourly) solar
00:04 20.4 °C 11.9 °C 1016.1 hPa Calm   5.0 km/h 58% 0.0 mm 0 W/m2
00:09 20.2 °C 11.9 °C 1016.1 hPa NNW 2.6 km/h 5.0 km/h 59% 0.0 mm 0 W/m2
00:14 20.1 °C 12.3 °C 1016.1 hPa North 5.0 km/h 6.1 km/h 61% 0.0 mm 0 W/m2
00:19 19.9 °C 12.9 °C 1016.1 hPa North 2.6 km/h 7.2 km/h 64% 0.0 mm 0 W/m2
00:24 19.7 °C 12.7 °C 1016.1 hPa NNE 2.6 km/h 7.2 km/h 64% 0.0 mm 0 W/m2
00:29 19.5 °C 12.5 °C 1016.1 hPa NE 3.5 km/h 6.1 km/h 64% 0.0 mm 0 W/m2
00:34 19.4 °C 12.7 °C 1016.5 hPa NNW 3.5 km/h 7.2 km/h 65% 0.0 mm 0 W/m2
00:39 19.3 °C 12.6 °C 1016.5 hPa NW 1.1 km/h 7.2 km/h 65% 0.0 mm 0 W/m2
00:44 19.0 °C 12.3 °C 1016.5 hPa WNW 2.6 km/h 6.1 km/h 65% 0.0 mm 0 W/m2
00:49 18.8 °C 12.6 °C 1016.5 hPa Calm   5.0 km/h 67% 0.0 mm 0 W/m2
00:54 18.5 °C 12.3 °C 1016.5 hPa WNW 2.6 km/h 6.1 km/h 67% 0.0 mm 0 W/m2
00:59 18.6 °C 12.6 °C 1016.8 hPa NW 3.5 km/h 6.1 km/h 68% 0.0 mm 0 W/m2
01:04 18.6 °C 12.6 °C 1016.1 hPa NW 3.5 km/h 6.1 km/h 68% 0.0 mm 0 W/m2
01:09 18.5 °C 12.5 °C 1016.5 hPa NW 2.6 km/h 6.1 km/h 68% 0.0 mm 0 W/m2
01:14 18.4 °C 12.4 °C 1016.5 hPa NW 2.6 km/h 6.1 km/h 68% 0.0 mm 0 W/m2
01:19 18.2 °C 12.2 °C 1016.5 hPa NW 2.6 km/h 5.0 km/h 68% 0.0 mm 0 W/m2
01:35 17.5 °C 12.4 °C 1016.5 hPa NNW 3.5 km/h 6.1 km/h 72% 0.0 mm 0 W/m2
01:40 17.3 °C 12.4 °C 1016.1 hPa North 2.6 km/h 6.1 km/h 73% 0.0 mm 0 W/m2
01:45 17.1 °C 12.4 °C 1016.1 hPa Calm   6.1 km/h 74% 0.0 mm 0 W/m2
01:50 17.0 °C 12.6 °C 1016.1 hPa Calm   3.5 km/h 75% 0.0 mm 0 W/m2
01:55 16.9 °C 12.7 °C 1016.1 hPa Calm   1.1 km/h 76% 0.0 mm 0 W/m2
02:00 16.8 °C 12.6 °C 1016.1 hPa NW 5.0 km/h 6.1 km/h 76% 0.0 mm 0 W/m2
02:05 16.6 °C 12.8 °C 1016.1 hPa Calm   6.1 km/h 78% 0.0 mm 0 W/m2
02:10 16.5 °C 12.7 °C 1016.1 hPa NW 2.6 km/h 6.1 km/h 78% 0.0 mm 0 W/m2
02:15 16.3 °C 12.7 °C 1016.1 hPa NW 2.6 km/h 5.0 km/h 79% 0.0 mm 0 W/m2
02:20 16.2 °C 12.8 °C 1016.1 hPa NNW 1.1 km/h 7.2 km/h 80% 0.0 mm 0 W/m2
02:25 16.2 °C 12.9 °C 1016.1 hPa NNW 2.6 km/h 7.2 km/h 81% 0.0 mm 0 W/m2
02:30 16.1 °C 12.8 °C 1016.1 hPa NW 3.5 km/h 6.1 km/h 81% 0.0 mm 0 W/m2
02:35 15.9 °C 12.7 °C 1016.1 hPa Calm   6.1 km/h 81% 0.0 mm 0 W/m2
02:40 15.8 °C 12.6 °C 1016.5 hPa Calm   5.0 km/h 81% 0.0 mm 0 W/m2
02:45 15.7 °C 12.4 °C 1016.8 hPa Calm   2.6 km/h 81% 0.0 mm 0 W/m2
02:50 15.6 °C 12.7 °C 1016.8 hPa WSW 3.5 km/h 6.1 km/h 83% 0.0 mm 0 W/m2
02:55 15.8 °C 12.9 °C 1016.8 hPa West 2.6 km/h 7.2 km/h 83% 0.0 mm 0 W/m2
03:00 15.9 °C 13.0 °C 1016.8 hPa Calm   7.2 km/h 83% 0.0 mm 0 W/m2
03:05 15.8 °C 12.7 °C 1016.8 hPa Calm   5.0 km/h 82% 0.0 mm 0 W/m2
03:10 15.7 °C 12.7 °C 1016.8 hPa NW 1.1 km/h 3.5 km/h 82% 0.0 mm 0 W/m2
03:15 15.9 °C 13.0 °C 1016.5 hPa NW 3.5 km/h 6.1 km/h 83% 0.0 mm 0 W/m2
03:20 15.9 °C 12.4 °C 1016.8 hPa NW 2.6 km/h 6.1 km/h 80% 0.0 mm 0 W/m2
03:25 15.9 °C 12.7 °C 1016.8 hPa ENE 1.1 km/h 5.0 km/h 81% 0.0 mm 0 W/m2
03:43 15.4 °C 12.6 °C 1017.2 hPa Calm   3.5 km/h 83% 0.0 mm 0 W/m2
03:48 15.4 °C 12.6 °C 1016.8 hPa North 1.1 km/h 5.0 km/h 83% 0.0 mm 0 W/m2
03:53 15.2 °C 12.3 °C 1016.8 hPa NNW 1.1 km/h 5.0 km/h 83% 0.0 mm 0 W/m2
03:58 15.0 °C 12.2 °C 1016.8 hPa Calm   3.5 km/h 83% 0.0 mm 0 W/m2
04:03 14.8 °C 12.1 °C 1017.2 hPa NW 1.1 km/h 3.5 km/h 84% 0.0 mm 0 W/m2
04:08 14.6 °C 12.1 °C 1017.2 hPa NNW 3.5 km/h 5.0 km/h 85% 0.0 mm 0 W/m2
04:13 14.3 °C 11.8 °C 1017.2 hPa NNW 2.6 km/h 7.2 km/h 85% 0.0 mm 0 W/m2
04:18 14.1 °C 11.6 °C 1017.2 hPa Calm   7.2 km/h 85% 0.0 mm 0 W/m2
04:23 13.9 °C 11.6 °C 1016.8 hPa North 1.1 km/h 3.5 km/h 86% 0.0 mm 0 W/m2
04:28 13.7 °C 11.6 °C 1016.8 hPa NNW 2.6 km/h 3.5 km/h 87% 0.0 mm 0 W/m2
04:33 13.6 °C 11.5 °C 1016.8 hPa NNW 2.6 km/h 3.5 km/h 87% 0.0 mm 0 W/m2
04:38 13.5 °C 11.4 °C 1017.2 hPa North 1.1 km/h 5.0 km/h 87% 0.0 mm 0 W/m2
04:43 13.3 °C 11.2 °C 1017.2 hPa North 2.6 km/h 5.0 km/h 87% 0.0 mm 0 W/m2
04:48 13.3 °C 11.2 °C 1017.2 hPa NW 1.1 km/h 3.5 km/h 87% 0.0 mm 0 W/m2
04:53 13.1 °C 10.8 °C 1017.2 hPa NW 3.5 km/h 5.0 km/h 86% 0.0 mm 0 W/m2
04:58 13.0 °C 10.7 °C 1017.2 hPa NW 1.1 km/h 5.0 km/h 86% 0.0 mm 0 W/m2
05:03 12.9 °C 10.6 °C 1016.8 hPa NNW 3.5 km/h 5.0 km/h 86% 0.0 mm 0 W/m2
05:08 12.8 °C 10.5 °C 1017.5 hPa NNW 2.6 km/h 5.0 km/h 86% 0.0 mm 0 W/m2
05:13 12.8 °C 10.5 °C 1017.5 hPa NNW 2.6 km/h 6.1 km/h 86% 0.0 mm 0 W/m2
05:18 12.7 °C 10.2 °C 1017.5 hPa North 3.5 km/h 6.1 km/h 85% 0.0 mm 0 W/m2
05:23 12.7 °C 10.2 °C 1017.5 hPa North 2.6 km/h 6.1 km/h 85% 0.0 mm 0 W/m2
05:28 12.7 °C 10.2 °C 1017.8 hPa North 1.1 km/h 6.1 km/h 85% 0.0 mm 0 W/m2
05:33 12.6 °C 10.3 °C 1017.5 hPa Calm   5.0 km/h 86% 0.0 mm 0 W/m2
05:38 12.6 °C 10.3 °C 1017.8 hPa NNW 2.6 km/h 5.0 km/h 86% 0.0 mm 0 W/m2
05:43 12.6 °C 10.3 °C 1017.8 hPa NNW 2.6 km/h 5.0 km/h 86% 0.0 mm 0 W/m2
05:48 12.5 °C 10.2 °C 1017.8 hPa North 2.6 km/h 5.0 km/h 86% 0.0 mm 0 W/m2
05:53 12.5 °C 10.2 °C 1018.2 hPa North 2.6 km/h 5.0 km/h 86% 0.0 mm 0 W/m2
05:58 12.5 °C 10.2 °C 1018.2 hPa NNW 2.6 km/h 6.1 km/h 86% 0.0 mm 0 W/m2
06:03 12.4 °C 10.1 °C 1018.2 hPa NNW 2.6 km/h 6.1 km/h 86% 0.0 mm 0 W/m2
06:08 12.4 °C 10.1 °C 1018.2 hPa North 2.6 km/h 6.1 km/h 86% 0.0 mm 0 W/m2
06:13 12.4 °C 10.1 °C 1018.2 hPa NNW 1.1 km/h 6.1 km/h 86% 0.0 mm 0 W/m2
06:18 12.3 °C 10.1 °C 1018.5 hPa NNW 2.6 km/h 5.0 km/h 86% 0.0 mm 3 W/m2
06:23 12.3 °C 10.1 °C 1018.5 hPa NNW 1.1 km/h 5.0 km/h 86% 0.0 mm 5 W/m2
06:28 12.3 °C 10.1 °C 1018.5 hPa NW 1.1 km/h 5.0 km/h 86% 0.0 mm 9 W/m2
06:33 12.4 °C 10.1 °C 1018.8 hPa NNW 3.5 km/h 5.0 km/h 86% 0.0 mm 13 W/m2
06:38 12.4 °C 10.1 °C 1018.8 hPa NNW 3.5 km/h 6.1 km/h 86% 0.0 mm 28 W/m2
06:43 12.6 °C 10.3 °C 1018.8 hPa NW 2.6 km/h 7.2 km/h 86% 0.0 mm 33 W/m2
06:48 13.0 °C 10.6 °C 1018.8 hPa NNW 2.6 km/h 7.2 km/h 85% 0.0 mm 41 W/m2
06:53 13.3 °C 10.7 °C 1018.8 hPa North 5.0 km/h 8.7 km/h 84% 0.0 mm 50 W/m2
06:58 13.5 °C 10.7 °C 1018.8 hPa NNW 3.5 km/h 8.7 km/h 83% 0.0 mm 59 W/m2
07:03 13.9 °C 10.9 °C 1018.8 hPa Calm   8.7 km/h 82% 0.0 mm 66 W/m2
07:08 14.2 °C 10.6 °C 1019.2 hPa NNW 6.1 km/h 8.7 km/h 79% 0.0 mm 71 W/m2
07:13 14.3 °C 10.5 °C 1019.2 hPa NNW 3.5 km/h 8.7 km/h 78% 0.0 mm 79 W/m2
07:18 14.6 °C 10.8 °C 1019.2 hPa NNW 6.1 km/h 8.7 km/h 78% 0.0 mm 88 W/m2
07:23 14.9 °C 11.1 °C 1019.5 hPa NNW 3.5 km/h 8.7 km/h 78% 0.0 mm 97 W/m2
07:28 15.3 °C 11.1 °C 1019.5 hPa NW 5.0 km/h 7.2 km/h 76% 0.0 mm 108 W/m2
07:33 15.5 °C 10.9 °C 1019.5 hPa NNW 5.0 km/h 7.2 km/h 74% 0.0 mm 118 W/m2
07:38 15.7 °C 10.9 °C 1019.5 hPa NNW 5.0 km/h 7.2 km/h 73% 0.0 mm 133 W/m2
07:43 15.8 °C 10.8 °C 1019.5 hPa NNW 5.0 km/h 8.7 km/h 72% 0.0 mm 147 W/m2
07:48 15.9 °C 11.1 °C 1019.5 hPa NNW 3.5 km/h 8.7 km/h 73% 0.0 mm 160 W/m2
07:53 16.3 °C 10.8 °C 1019.5 hPa NNW 5.0 km/h 9.7 km/h 70% 0.0 mm 172 W/m2
07:58 16.6 °C 10.9 °C 1019.9 hPa NNW 6.1 km/h 9.7 km/h 69% 0.0 mm 185 W/m2
08:03 16.9 °C 11.2 °C 1019.5 hPa NNW 5.0 km/h 8.7 km/h 69% 0.0 mm 197 W/m2
08:08 17.5 °C 11.1 °C 1019.9 hPa NNW 5.0 km/h 8.7 km/h 66% 0.0 mm 211 W/m2
08:13 17.5 °C 10.8 °C 1019.9 hPa NNW 3.5 km/h 11.1 km/h 65% 0.0 mm 221 W/m2
08:18 17.8 °C 10.9 °C 1019.9 hPa NNW 6.1 km/h 11.1 km/h 64% 0.0 mm 236 W/m2
08:23 18.2 °C 11.5 °C 1019.9 hPa NNW 3.5 km/h 11.1 km/h 65% 0.0 mm 250 W/m2
08:28 18.5 °C 11.6 °C 1020.2 hPa Calm   8.7 km/h 64% 0.0 mm 264 W/m2
08:33 19.5 °C 12.1 °C 1020.5 hPa NNE 2.6 km/h 8.7 km/h 62% 0.0 mm 310 W/m2
08:38 20.9 °C 11.8 °C 1020.5 hPa NE 5.0 km/h 6.1 km/h 56% 0.0 mm 305 W/m2
08:43 21.1 °C 11.7 °C 1020.5 hPa Calm   6.1 km/h 55% 0.0 mm 315 W/m2
08:48 22.2 °C 12.4 °C 1020.5 hPa Calm   6.1 km/h 54% 0.0 mm 339 W/m2
08:53 22.9 °C 13.1 °C 1020.5 hPa SSE 3.5 km/h 9.7 km/h 54% 0.0 mm 350 W/m2
08:58 22.2 °C 13.6 °C 1020.5 hPa SSW 6.1 km/h 9.7 km/h 58% 0.0 mm 369 W/m2
09:03 21.5 °C 14.2 °C 1020.5 hPa SW 13.4 km/h 15.8 km/h 63% 0.0 mm 390 W/m2
09:08 21.0 °C 14.4 °C 1020.5 hPa SW 12.2 km/h 17.2 km/h 66% 0.0 mm 419 W/m2
09:13 20.7 °C 14.4 °C 1020.9 hPa SW 8.7 km/h 21.9 km/h 67% 0.0 mm 155 W/m2
09:18 20.4 °C 14.3 °C 1020.9 hPa SSW 12.2 km/h 21.9 km/h 68% 0.0 mm 271 W/m2
09:23 20.1 °C 14.4 °C 1020.9 hPa South 9.7 km/h 21.9 km/h 70% 0.0 mm 192 W/m2
09:28 19.9 °C 15.2 °C 1021.2 hPa South 12.2 km/h 18.3 km/h 74% 0.0 mm 361 W/m2
09:33 20.0 °C 14.2 °C 1020.9 hPa South 11.1 km/h 21.9 km/h 69% 0.0 mm 465 W/m2
09:38 20.1 °C 14.0 °C 1021.2 hPa SSE 11.1 km/h 21.9 km/h 68% 0.0 mm 407 W/m2
09:43 20.1 °C 14.4 °C 1020.9 hPa South 8.7 km/h 19.5 km/h 70% 0.0 mm 469 W/m2
09:48 20.5 °C 14.4 °C 1021.2 hPa South 7.2 km/h 17.2 km/h 68% 0.0 mm 519 W/m2
09:53 20.6 °C 14.5 °C 1021.2 hPa South 6.1 km/h 18.3 km/h 68% 0.0 mm 493 W/m2
09:58 21.0 °C 14.4 °C 1021.2 hPa South 7.2 km/h 18.3 km/h 66% 0.0 mm 569 W/m2
10:03 21.1 °C 14.5 °C 1021.2 hPa South 8.7 km/h 14.8 km/h 66% 0.0 mm 585 W/m2
10:09 21.0 °C 14.4 °C 1021.2 hPa SW 9.7 km/h 13.4 km/h 66% 0.0 mm 616 W/m2
10:14 21.0 °C 14.7 °C 1021.2 hPa SW 7.2 km/h 13.4 km/h 67% 0.0 mm 628 W/m2
10:19 21.3 °C 14.4 °C 1021.2 hPa SSW 8.7 km/h 13.4 km/h 65% 0.0 mm 656 W/m2
10:24 21.2 °C 14.1 °C 1021.2 hPa South 9.7 km/h 17.2 km/h 64% 0.0 mm 678 W/m2
10:29 21.2 °C 14.6 °C 1021.2 hPa South 11.1 km/h 17.2 km/h 66% 0.0 mm 695 W/m2
10:34 21.0 °C 14.4 °C 1021.2 hPa South 3.5 km/h 15.8 km/h 66% 0.0 mm 693 W/m2
10:39 21.5 °C 14.7 °C 1020.9 hPa SSE 9.7 km/h 15.8 km/h 65% 0.0 mm 680 W/m2
10:44 21.6 °C 14.3 °C 1021.2 hPa South 9.7 km/h 13.4 km/h 63% 0.0 mm 726 W/m2
10:49 21.4 °C 14.3 °C 1020.9 hPa South 5.0 km/h 13.4 km/h 64% 0.0 mm 704 W/m2
10:54 21.4 °C 14.3 °C 1021.2 hPa SSE 2.6 km/h 14.8 km/h 64% 0.0 mm 778 W/m2
10:59 21.7 °C 14.6 °C 1021.2 hPa South 7.2 km/h 15.8 km/h 64% 0.0 mm 801 W/m2
11:04 21.4 °C 14.6 °C 1021.2 hPa South 9.7 km/h 17.2 km/h 65% 0.0 mm 812 W/m2
11:09 21.2 °C 14.6 °C 1021.2 hPa South 5.0 km/h 17.2 km/h 66% 0.0 mm 834 W/m2
11:14 21.5 °C 14.7 °C 1021.2 hPa SSE 11.1 km/h 15.8 km/h 65% 0.0 mm 850 W/m2
11:19 20.9 °C 14.6 °C 1021.2 hPa South 7.2 km/h 17.2 km/h 67% 0.0 mm 858 W/m2
11:24 21.2 °C 14.8 °C 1021.2 hPa South 6.1 km/h 17.2 km/h 67% 0.0 mm 876 W/m2
11:29 21.4 °C 14.8 °C 1020.9 hPa SSE 8.7 km/h 15.8 km/h 66% 0.0 mm 887 W/m2
11:34 21.2 °C 14.6 °C 1021.2 hPa South 8.7 km/h 15.8 km/h 66% 0.0 mm 886 W/m2
11:39 21.5 °C 14.9 °C 1021.2 hPa SSE 6.1 km/h 15.8 km/h 66% 0.0 mm 898 W/m2
11:44 21.4 °C 14.8 °C 1021.2 hPa SSE 6.1 km/h 14.8 km/h 66% 0.0 mm 906 W/m2
11:49 21.4 °C 14.8 °C 1021.2 hPa South 12.2 km/h 14.8 km/h 66% 0.0 mm 904 W/m2
11:54 21.5 °C 14.7 °C 1021.2 hPa South 7.2 km/h 15.8 km/h 65% 0.0 mm 931 W/m2
11:59 21.5 °C 14.9 °C 1021.2 hPa South 6.1 km/h 15.8 km/h 66% 0.0 mm 934 W/m2
12:04 21.7 °C 15.3 °C 1021.2 hPa SSE 5.0 km/h 13.4 km/h 67% 0.0 mm 955 W/m2
12:09 21.7 °C 14.6 °C 1021.2 hPa SSE 6.1 km/h 13.4 km/h 64% 0.0 mm 947 W/m2
12:14 21.9 °C 14.6 °C 1021.2 hPa SSE 9.7 km/h 13.4 km/h 63% 0.0 mm 907 W/m2
12:19 21.3 °C 14.0 °C 1021.2 hPa SSE 3.5 km/h 14.8 km/h 63% 0.0 mm 873 W/m2
12:24 21.6 °C 14.0 °C 1021.2 hPa South 6.1 km/h 14.8 km/h 62% 0.0 mm 907 W/m2
12:29 21.4 °C 13.8 °C 1021.2 hPa South 3.5 km/h 18.3 km/h 62% 0.0 mm 930 W/m2
12:34 22.1 °C 13.4 °C 1021.2 hPa SSE 5.0 km/h 18.3 km/h 58% 0.0 mm 930 W/m2
12:39 22.1 °C 14.0 °C 1020.9 hPa ESE 5.0 km/h 12.2 km/h 60% 0.0 mm 932 W/m2
12:44 21.9 °C 13.0 °C 1020.9 hPa SSE 8.7 km/h 14.8 km/h 57% 0.0 mm 953 W/m2
12:49 22.0 °C 12.8 °C 1020.9 hPa South 3.5 km/h 14.8 km/h 56% 0.0 mm 950 W/m2
12:54 22.4 °C 13.2 °C 1020.9 hPa SE 8.7 km/h 14.8 km/h 56% 0.0 mm 942 W/m2
12:59 22.3 °C 10.8 °C 1020.9 hPa SSE 6.1 km/h 14.8 km/h 48% 0.0 mm 955 W/m2
13:04 22.5 °C 12.2 °C 1020.9 hPa SSE 5.0 km/h 13.4 km/h 52% 0.0 mm 951 W/m2
13:09 22.7 °C 11.4 °C 1021.2 hPa SE 3.5 km/h 11.1 km/h 49% 0.0 mm 943 W/m2
13:10 22.7 °C 11.2 °C 1020.9 hPa SE 9.7 km/h 12.2 km/h 48% 0.0 mm 926 W/m2
13:15 23.0 °C 11.4 °C 1020.9 hPa South 7.2 km/h 14.8 km/h 48% 0.0 mm 952 W/m2
13:20 23.2 °C 11.6 °C 1020.9 hPa SSE 8.7 km/h 14.8 km/h 48% 0.0 mm 946 W/m2
13:25 23.0 °C 11.1 °C 1020.9 hPa SSE 7.2 km/h 15.8 km/h 47% 0.0 mm 943 W/m2
13:30 23.1 °C 11.2 °C 1020.9 hPa SSE 9.7 km/h 15.8 km/h 47% 0.0 mm 935 W/m2
13:35 23.3 °C 11.1 °C 1020.5 hPa SSE 6.1 km/h 15.8 km/h 46% 0.0 mm 933 W/m2
13:40 23.1 °C 11.2 °C 1020.5 hPa South 8.7 km/h 15.8 km/h 47% 0.0 mm 927 W/m2
13:45 23.0 °C 11.1 °C 1020.5 hPa SSE 6.1 km/h 15.8 km/h 47% 0.0 mm 917 W/m2
13:51 23.6 °C 11.7 °C 1020.5 hPa SE 5.0 km/h 13.4 km/h 47% 0.0 mm 916 W/m2
13:56 23.6 °C 11.7 °C 1020.5 hPa SSE 8.7 km/h 15.8 km/h 47% 0.0 mm 912 W/m2
14:01 23.5 °C 11.6 °C 1020.5 hPa South 9.7 km/h 15.8 km/h 47% 0.0 mm 898 W/m2
14:06 23.6 °C 11.9 °C 1020.5 hPa South 5.0 km/h 15.8 km/h 48% 0.0 mm 891 W/m2
14:11 23.8 °C 12.4 °C 1020.2 hPa SSE 5.0 km/h 13.4 km/h 49% 0.0 mm 887 W/m2
14:16 23.7 °C 12.4 °C 1020.5 hPa SE 6.1 km/h 14.8 km/h 49% 0.0 mm 880 W/m2
14:21 23.5 °C 12.2 °C 1020.2 hPa SE 7.2 km/h 15.8 km/h 49% 0.0 mm 871 W/m2
14:26 23.2 °C 12.2 °C 1020.2 hPa SE 6.1 km/h 15.8 km/h 50% 0.0 mm 862 W/m2
14:31 23.3 °C 12.0 °C 1019.9 hPa SE 12.2 km/h 19.5 km/h 49% 0.0 mm 853 W/m2
14:36 23.0 °C 12.1 °C 1019.9 hPa SSE 6.1 km/h 19.5 km/h 50% 0.0 mm 842 W/m2
14:41 23.0 °C 12.3 °C 1019.9 hPa SSE 7.2 km/h 15.8 km/h 51% 0.0 mm 834 W/m2
14:46 23.1 °C 12.7 °C 1019.9 hPa SSE 2.6 km/h 15.8 km/h 52% 0.0 mm 824 W/m2
14:51 23.6 °C 12.6 °C 1019.9 hPa SE 11.1 km/h 15.8 km/h 50% 0.0 mm 814 W/m2
14:56 23.1 °C 12.7 °C 1019.9 hPa SE 7.2 km/h 15.8 km/h 52% 0.0 mm 803 W/m2
15:01 23.1 °C 12.7 °C 1019.9 hPa SSE 6.1 km/h 15.8 km/h 52% 0.0 mm 785 W/m2
15:06 24.1 °C 13.3 °C 1019.9 hPa SSE 11.1 km/h 14.8 km/h 51% 0.0 mm 767 W/m2
15:11 23.9 °C 12.9 °C 1019.9 hPa SE 8.7 km/h 14.8 km/h 50% 0.0 mm 748 W/m2
15:16 23.6 °C 13.5 °C 1019.9 hPa SSE 11.1 km/h 15.8 km/h 53% 0.0 mm 725 W/m2
15:21 23.5 °C 13.1 °C 1019.9 hPa SSE 12.2 km/h 18.3 km/h 52% 0.0 mm 620 W/m2
15:26 23.6 °C 13.2 °C 1019.5 hPa SSE 6.1 km/h 18.3 km/h 52% 0.0 mm 738 W/m2
15:31 23.6 °C 13.2 °C 1019.5 hPa South 11.1 km/h 19.5 km/h 52% 0.0 mm 579 W/m2
15:36 23.5 °C 13.9 °C 1019.5 hPa South 9.7 km/h 19.5 km/h 55% 0.0 mm 531 W/m2
15:41 23.4 °C 13.9 °C 1019.5 hPa SSE 9.7 km/h 19.5 km/h 55% 0.0 mm 559 W/m2
15:46 22.8 °C 13.6 °C 1019.5 hPa SSE 7.2 km/h 20.9 km/h 56% 0.0 mm 690 W/m2
15:51 22.9 °C 13.9 °C 1019.5 hPa SSE 7.2 km/h 20.9 km/h 57% 0.0 mm 578 W/m2
15:56 23.0 °C 14.1 °C 1019.5 hPa SE 7.2 km/h 20.9 km/h 57% 0.0 mm 648 W/m2
16:01 23.0 °C 14.1 °C 1019.5 hPa SE 9.7 km/h 17.2 km/h 57% 0.0 mm 511 W/m2
16:06 22.6 °C 13.9 °C 1019.5 hPa SSE 8.7 km/h 19.5 km/h 58% 0.0 mm 637 W/m2
16:18 22.9 °C 15.0 °C 1019.5 hPa SE 12.2 km/h 19.5 km/h 61% 0.0 mm 505 W/m2
16:27 23.1 °C 14.4 °C 1019.2 hPa ESE 9.7 km/h 18.3 km/h 58% 0.0 mm 564 W/m2
16:32 23.0 °C 14.6 °C 1019.2 hPa SE 9.7 km/h 19.5 km/h 59% 0.0 mm 570 W/m2
16:33 23.0 °C 14.6 °C 1019.2 hPa SE 7.2 km/h 19.5 km/h 59% 0.0 mm 560 W/m2
16:37 23.0 °C 15.1 °C 1019.2 hPa ESE 2.6 km/h 19.5 km/h 61% 0.0 mm 556 W/m2
16:42 23.3 °C 14.8 °C 1019.2 hPa ESE 9.7 km/h 20.9 km/h 59% 0.0 mm 548 W/m2
16:47 23.3 °C 15.1 °C 1018.8 hPa SE 7.2 km/h 20.9 km/h 60% 0.0 mm 534 W/m2
16:52 23.8 °C 15.1 °C 1018.8 hPa SSE 9.7 km/h 14.8 km/h 58% 0.0 mm 523 W/m2
16:57 23.6 °C 14.9 °C 1018.8 hPa SSE 17.2 km/h 21.9 km/h 58% 0.0 mm 509 W/m2
17:02 23.0 °C 14.6 °C 1018.5 hPa South 6.1 km/h 21.9 km/h 59% 0.0 mm 495 W/m2
17:07 23.3 °C 14.8 °C 1018.5 hPa SSE 5.0 km/h 21.9 km/h 59% 0.0 mm 481 W/m2
17:12 23.5 °C 15.6 °C 1018.5 hPa SSE 5.0 km/h 20.9 km/h 61% 0.0 mm 468 W/m2
17:17 23.6 °C 15.7 °C 1018.5 hPa SSE 7.2 km/h 21.9 km/h 61% 0.0 mm 455 W/m2
17:22 23.3 °C 15.4 °C 1018.5 hPa SSE 11.1 km/h 21.9 km/h 61% 0.0 mm 439 W/m2
17:27 22.7 °C 15.6 °C 1018.5 hPa SSE 9.7 km/h 20.9 km/h 64% 0.0 mm 423 W/m2
17:32 22.9 °C 15.7 °C 1018.5 hPa SSE 11.1 km/h 20.9 km/h 64% 0.0 mm 404 W/m2
17:37 23.1 °C 16.2 °C 1018.5 hPa SSE 13.4 km/h 18.3 km/h 65% 0.0 mm 393 W/m2
17:42 22.9 °C 15.7 °C 1018.5 hPa SSE 8.7 km/h 18.3 km/h 64% 0.0 mm 379 W/m2
17:47 23.1 °C 15.7 °C 1018.5 hPa SSE 5.0 km/h 17.2 km/h 63% 0.0 mm 369 W/m2
17:52 23.2 °C 14.8 °C 1018.2 hPa SSE 6.1 km/h 19.5 km/h 59% 0.0 mm 350 W/m2
17:57 23.6 °C 15.4 °C 1018.2 hPa SSE 12.2 km/h 20.9 km/h 60% 0.0 mm 335 W/m2
18:02 23.9 °C 14.9 °C 1018.2 hPa SSE 11.1 km/h 20.9 km/h 57% 0.0 mm 322 W/m2
18:07 23.8 °C 12.2 °C 1018.2 hPa SSE 9.7 km/h 20.9 km/h 48% 0.0 mm 308 W/m2
18:12 24.2 °C 11.9 °C 1017.8 hPa SE 9.7 km/h 20.9 km/h 46% 0.0 mm 294 W/m2
18:17 23.8 °C 11.8 °C 1017.8 hPa ESE 9.7 km/h 24.5 km/h 47% 0.0 mm 275 W/m2
18:22 23.7 °C 12.4 °C 1017.8 hPa ESE 8.7 km/h 24.5 km/h 49% 0.0 mm 259 W/m2
18:27 24.0 °C 12.3 °C 1017.8 hPa East 9.7 km/h 24.5 km/h 48% 0.0 mm 241 W/m2
18:32 23.8 °C 12.4 °C 1017.8 hPa ESE 8.7 km/h 24.5 km/h 49% 0.0 mm 99 W/m2
18:37 23.3 °C 12.3 °C 1017.5 hPa ESE 9.7 km/h 19.5 km/h 50% 0.0 mm 203 W/m2
18:42 23.2 °C 12.5 °C 1017.5 hPa ESE 8.7 km/h 19.5 km/h 51% 0.0 mm 89 W/m2
18:47 23.1 °C 12.7 °C 1017.5 hPa East 6.1 km/h 15.8 km/h 52% 0.0 mm 117 W/m2
18:52 23.2 °C 12.8 °C 1017.5 hPa ESE 8.7 km/h 12.2 km/h 52% 0.0 mm 135 W/m2
18:57 23.2 °C 12.5 °C 1017.8 hPa ESE 3.5 km/h 13.4 km/h 51% 0.0 mm 81 W/m2
19:02 23.2 °C 12.2 °C 1017.5 hPa East 13.4 km/h 18.3 km/h 50% 0.0 mm 68 W/m2
19:07 23.2 °C 11.9 °C 1017.8 hPa East 8.7 km/h 18.3 km/h 49% 0.0 mm 60 W/m2
19:12 23.3 °C 12.3 °C 1017.5 hPa East 5.0 km/h 15.8 km/h 50% 0.0 mm 57 W/m2
19:17 23.3 °C 12.3 °C 1017.8 hPa East 1.1 km/h 12.2 km/h 50% 0.0 mm 50 W/m2
19:22 23.4 °C 12.4 °C 1017.8 hPa Calm   9.7 km/h 50% 0.0 mm 55 W/m2
19:27 23.3 °C 13.5 °C 1018.2 hPa North 2.6 km/h 5.0 km/h 54% 0.0 mm 57 W/m2
19:32 22.9 °C 13.7 °C 1018.2 hPa NW 2.6 km/h 5.0 km/h 56% 0.0 mm 52 W/m2
19:37 22.6 °C 13.9 °C 1018.2 hPa NW 2.6 km/h 5.0 km/h 58% 0.0 mm 44 W/m2
19:42 22.2 °C 14.1 °C 1018.2 hPa NW 3.5 km/h 8.7 km/h 60% 0.0 mm 35 W/m2
19:47 21.8 °C 14.2 °C 1018.2 hPa NNW 8.7 km/h 12.2 km/h 62% 0.0 mm 39 W/m2
19:52 21.6 °C 14.0 °C 1018.5 hPa NW 8.7 km/h 12.2 km/h 62% 0.0 mm 41 W/m2
19:57 21.4 °C 13.8 °C 1018.5 hPa NNW 6.1 km/h 12.2 km/h 62% 0.0 mm 35 W/m2
20:02 21.2 °C 13.9 °C 1018.5 hPa NNW 6.1 km/h 11.1 km/h 63% 0.0 mm 24 W/m2
20:07 20.9 °C 14.3 °C 1018.5 hPa NW 3.5 km/h 11.1 km/h 66% 0.0 mm 18 W/m2
20:12 20.8 °C 14.4 °C 1018.5 hPa NW 5.0 km/h 9.7 km/h 67% 0.0 mm 14 W/m2
20:17 20.6 °C 14.3 °C 1018.5 hPa NNW 6.1 km/h 9.7 km/h 67% 0.0 mm 12 W/m2
20:22 20.4 °C 14.6 °C 1018.8 hPa NNW 5.0 km/h 8.7 km/h 69% 0.0 mm 6 W/m2
20:27 20.2 °C 14.6 °C 1018.8 hPa NNW 2.6 km/h 8.7 km/h 70% 0.0 mm 4 W/m2
20:32 20.0 °C 14.6 °C 1018.8 hPa NNW 6.1 km/h 8.7 km/h 71% 0.0 mm 1 W/m2
20:37 19.9 °C 14.7 °C 1018.8 hPa Calm   8.7 km/h 72% 0.0 mm 0 W/m2
20:42 19.7 °C 14.7 °C 1018.8 hPa NNW 3.5 km/h 8.7 km/h 73% 0.0 mm 0 W/m2
20:47 19.6 °C 14.7 °C 1019.2 hPa North 1.1 km/h 8.7 km/h 73% 0.0 mm 0 W/m2
20:52 19.6 °C 14.7 °C 1018.8 hPa North 2.6 km/h 7.2 km/h 73% 0.0 mm 0 W/m2
20:57 19.5 °C 14.6 °C 1019.2 hPa NNW 2.6 km/h 6.1 km/h 73% 0.0 mm 0 W/m2
21:02 19.5 °C 14.8 °C 1019.2 hPa NNW 2.6 km/h 5.0 km/h 74% 0.0 mm 0 W/m2
21:07 19.6 °C 14.7 °C 1019.2 hPa Calm   6.1 km/h 73% 0.0 mm 0 W/m2
21:12 19.6 °C 14.7 °C 1019.2 hPa NNW 3.5 km/h 7.2 km/h 73% 0.0 mm 0 W/m2
21:18 19.6 °C 14.4 °C 1019.5 hPa Calm   7.2 km/h 72% 0.0 mm 0 W/m2
21:23 19.5 °C 14.3 °C 1019.5 hPa Calm   5.0 km/h 72% 0.0 mm 0 W/m2
21:28 19.4 °C 14.4 °C 1019.5 hPa North 1.1 km/h 5.0 km/h 73% 0.0 mm 0 W/m2
21:33 19.4 °C 14.4 °C 1019.5 hPa Calm   3.5 km/h 73% 0.0 mm 0 W/m2
21:38 19.3 °C 14.3 °C 1019.5 hPa Calm   3.5 km/h 73% 0.0 mm 0 W/m2
21:43 19.1 °C 14.4 °C 1019.5 hPa North 2.6 km/h 5.0 km/h 74% 0.0 mm 0 W/m2
21:48 19.0 °C 14.3 °C 1019.9 hPa North 1.1 km/h 5.0 km/h 74% 0.0 mm 0 W/m2
21:53 18.9 °C 14.4 °C 1019.5 hPa Calm   3.5 km/h 75% 0.0 mm 0 W/m2
21:58 18.9 °C 14.4 °C 1019.5 hPa Calm   3.5 km/h 75% 0.0 mm 0 W/m2
22:03 18.7 °C 14.2 °C 1019.9 hPa Calm   3.5 km/h 75% 0.0 mm 0 W/m2
22:08 18.6 °C 14.3 °C 1019.5 hPa Calm   1.1 km/h 76% 0.0 mm 0 W/m2
22:13 18.5 °C 14.2 °C 1019.5 hPa Calm   1.1 km/h 76% 0.0 mm 0 W/m2
22:18 18.4 °C 14.1 °C 1019.9 hPa Calm   1.1 km/h 76% 0.0 mm 0 W/m2
22:23 18.2 °C 13.9 °C 1019.9 hPa Calm     76% 0.0 mm 0 W/m2
22:28 18.1 °C 13.8 °C 1019.9 hPa North 1.1 km/h 3.5 km/h 76% 0.0 mm 0 W/m2
22:33 18.1 °C 14.0 °C 1019.9 hPa Calm   3.5 km/h 77% 0.0 mm 0 W/m2
22:39 17.8 °C 13.5 °C 1020.2 hPa Calm   2.6 km/h 76% 0.0 mm 0 W/m2
22:44 17.6 °C 13.3 °C 1020.2 hPa Calm     76% 0.0 mm 0 W/m2
22:49 17.6 °C 13.6 °C 1019.5 hPa Calm     77% 0.0 mm 0 W/m2
22:54 17.4 °C 13.6 °C 1019.9 hPa Calm     78% 0.0 mm 0 W/m2
22:59 17.1 °C 13.1 °C 1019.5 hPa Calm     77% 0.0 mm 0 W/m2
23:04 17.1 °C 13.2 °C 1019.5 hPa Calm     78% 0.0 mm 0 W/m2
23:09 17.1 °C 13.4 °C 1019.5 hPa Calm     79% 0.0 mm 0 W/m2
23:14 17.1 °C 13.6 °C 1019.5 hPa Calm     80% 0.0 mm 0 W/m2
23:19 17.0 °C 13.6 °C 1019.5 hPa Calm   2.6 km/h 80% 0.0 mm 0 W/m2
23:24 16.8 °C 13.7 °C 1019.5 hPa NW 2.6 km/h 5.0 km/h 82% 0.0 mm 0 W/m2
23:29 16.7 °C 13.8 °C 1019.5 hPa Calm   5.0 km/h 83% 0.0 mm 0 W/m2
23:34 16.6 °C 13.7 °C 1019.5 hPa NNW 3.5 km/h 6.1 km/h 83% 0.0 mm 0 W/m2
23:39 16.6 °C 13.9 °C 1019.2 hPa North 1.1 km/h 6.1 km/h 84% 0.0 mm 0 W/m2
23:44 16.6 °C 13.9 °C 1018.8 hPa North 1.1 km/h 7.2 km/h 84% 0.0 mm 0 W/m2
23:49 16.6 °C 13.7 °C 1019.2 hPa North 3.5 km/h 7.2 km/h 83% 0.0 mm 0 W/m2
23:54 16.7 °C 13.6 °C 1019.2 hPa North 3.5 km/h 8.7 km/h 82% 0.0 mm 0 W/m2
23:59 16.8 °C 13.2 °C 1019.2 hPa NNW 5.0 km/h 8.7 km/h 79% 0.0 mm 0 W/m2
Northern Hawkes Bay. New Zealand Historic Data
Compliments of Weather Underground - 2 mb